NORTHEAST SUFFOLK  -  Winter Weather Advisory Winter Weather Advisory        NORTHERN NASSAU  -  Winter Weather Advisory Winter Weather Advisory        NORTHWEST SUFFOLK  -  Winter Weather Advisory Winter Weather Advisory        SOUTHEAST SUFFOLK  -  Winter Weather Advisory Winter Weather Advisory        SOUTHERN NASSAU  -  Winter Weather Advisory Winter Weather Advisory        SOUTHWEST SUFFOLK  -  Winter Weather Advisory Winter Weather Advisory      

Active alerts

Northern Nassau
  Details for Northern Nassau Winter Weather Advisory
Southern Nassau
  Details for Southern Nassau Winter Weather Advisory
Northwest Suffolk
  Details for Northwest Suffolk Winter Weather Advisory
Southwest Suffolk
  Details for Southwest Suffolk Winter Weather Advisory
Northeast Suffolk
  Details for Northeast Suffolk Winter Weather Advisory
Southeast Suffolk
  Details for Southeast Suffolk Winter Weather Advisory


WXM80 ListenWXM80 Stop

You find our weather info also at:

UK Metoffice

WeatherCloud

Weather Underground

Northeastern Weather Network

AWEKAS

Citizen Weather Observer Program (CWOP)

HAMweather, WeatherForYou, PWS Weather


Weather Underground History page Text

Daily Summary for February 13, 2017 Units:  Metric    English   Both
« Previous Day
Next Day »
Daily Weekly Monthly Yearly Custom
  High: Low: Average:
Temperature: 3.8 °C -1.3 °C 1.9 °C
Dew Point: 2.1 °C -6 °C -3.1 °C
Humidity: 98 % 56 % 71 %
Wind Speed: 26.4 km/h 0 km/h 13.4 km/h
Wind Gust: 57.9 km/h - -
Wind:- - WNW
Pressure: 1013.8 hPa 999.5 hPa -
Precipitation: 0 mm    
Historical Graphs
 
 
Tabular Data for February 13, 2017
Time Temperature Dew Point Pressure Wind Wind Speed Wind Gust Humidity Rainfall Rate (Hourly)
00:04 0.6 °C 0.1 °C 1000.6 hPa WNW 1.4 km/h 7.4 km/h 97 % 0 mm
00:09 0.6 °C 0.1 °C 1000.2 hPa WNW 1 km/h 5.6 km/h 97 % 0 mm
00:14 0.5 °C 0.1 °C 1000.2 hPa WSW 1.6 km/h 5.6 km/h 97 % 0 mm
00:20 0.5 °C 0.1 °C 999.9 hPa WSW 0.6 km/h 5.6 km/h 97 % 0 mm
00:25 0.4 °C 0 °C 999.9 hPa Calm     97 % 0 mm
00:30 0.4 °C 0 °C 1000.2 hPa West 5.1 km/h 7.4 km/h 97 % 0 mm
00:35 0.4 °C 0.2 °C 1000.6 hPa West 4.7 km/h 8 km/h 98 % 0 mm
00:40 0.5 °C 0.1 °C 1000.2 hPa SW 2.6 km/h 13 km/h 97 % 0 mm
00:45 0.5 °C 0.1 °C 1000.2 hPa SW 1.3 km/h 3.7 km/h 97 % 0 mm
00:50 0.6 °C 0.3 °C 1000.2 hPa WSW 1.9 km/h 3.2 km/h 98 % 0 mm
00:55 0.6 °C 0.3 °C 999.9 hPa SSW 1.6 km/h 3.7 km/h 98 % 0 mm
01:00 0.6 °C 0.3 °C 999.9 hPa WSW 3.1 km/h 6.4 km/h 98 % 0 mm
01:05 0.7 °C 0.4 °C 999.9 hPa SW 6.1 km/h 14.8 km/h 98 % 0 mm
01:10 0.7 °C 0.4 °C 999.9 hPa SSW 6 km/h 11.1 km/h 98 % 0 mm
01:15 0.7 °C 0.4 °C 999.9 hPa SW 6 km/h 9.3 km/h 98 % 0 mm
01:20 0.7 °C 0.4 °C 999.9 hPa WSW 2.7 km/h 5.6 km/h 98 % 0 mm
01:25 0.8 °C 0.5 °C 999.9 hPa WSW 6.3 km/h 13 km/h 98 % 0 mm
01:30 0.9 °C 0.6 °C 999.9 hPa WNW 4 km/h 5.6 km/h 98 % 0 mm
01:35 0.9 °C 0.7 °C 999.9 hPa WSW 1.1 km/h 5.6 km/h 98 % 0 mm
01:40 0.9 °C 0.7 °C 999.9 hPa WSW 0.2 km/h 1.9 km/h 98 % 0 mm
01:45 1 °C 0.7 °C 999.5 hPa WSW 1 km/h 1.9 km/h 98 % 0 mm
01:50 1 °C 0.7 °C 999.9 hPa SW 1.3 km/h 5.6 km/h 98 % 0 mm
01:56 1.1 °C 0.8 °C 999.5 hPa WSW 0.2 km/h 3.7 km/h 98 % 0 mm
02:01 1.1 °C 0.8 °C 999.5 hPa West 8.2 km/h 16.7 km/h 98 % 0 mm
02:06 1.3 °C 1.1 °C 999.9 hPa WNW 10 km/h 18.5 km/h 98 % 0 mm
02:11 1.4 °C 1.2 °C 1000.2 hPa NW 5.3 km/h 7.4 km/h 98 % 0 mm
02:16 1.7 °C 1.4 °C 1000.2 hPa NW 8.7 km/h 14.8 km/h 98 % 0 mm
02:21 1.7 °C 1.4 °C 999.9 hPa WNW 4.3 km/h 7.4 km/h 98 % 0 mm
02:26 1.7 °C 1.4 °C 1000.2 hPa NW 5.1 km/h 9.7 km/h 98 % 0 mm
02:31 1.8 °C 1.5 °C 999.9 hPa West 6 km/h 18.5 km/h 98 % 0 mm
02:36 1.9 °C 1.6 °C 999.9 hPa WNW 7.1 km/h 16.7 km/h 98 % 0 mm
02:41 2 °C 1.7 °C 999.9 hPa NW 11.1 km/h 18.5 km/h 98 % 0 mm
02:46 2.1 °C 1.8 °C 999.9 hPa West 11.3 km/h 16.7 km/h 98 % 0 mm
02:51 2.2 °C 1.9 °C 999.9 hPa NW 6.6 km/h 24.1 km/h 98 % 0 mm
02:56 2.3 °C 2 °C 999.9 hPa West 15.1 km/h 20.4 km/h 98 % 0 mm
03:01 2.3 °C 2 °C 999.9 hPa WNW 14.2 km/h 18.5 km/h 98 % 0 mm
03:06 2.3 °C 2 °C 999.9 hPa WSW 9.3 km/h 25.7 km/h 98 % 0 mm
03:11 2.3 °C 2.1 °C 999.9 hPa WSW 12.7 km/h 20.4 km/h 98 % 0 mm
03:16 2.4 °C 1.9 °C 999.9 hPa West 17.4 km/h 25.9 km/h 97 % 0 mm
03:21 2.4 °C 1.9 °C 999.9 hPa WNW 14.2 km/h 22.2 km/h 97 % 0 mm
03:26 2.4 °C 1.9 °C 1000.2 hPa West 15 km/h 29.6 km/h 97 % 0 mm
03:31 2.4 °C 2 °C 1000.2 hPa West 16.1 km/h 29 km/h 97 % 0 mm
03:36 2.4 °C 1.8 °C 999.9 hPa West 26.4 km/h 42.6 km/h 96 % 0 mm
03:41 2.4 °C 1.5 °C 1000.6 hPa West 17.2 km/h 29.6 km/h 94 % 0 mm
03:46 2.4 °C 1.4 °C 1000.6 hPa NW 11.3 km/h 11.3 km/h 93 % 0 mm
03:51 2.4 °C 1.1 °C 1000.6 hPa NW 19.2 km/h 33.3 km/h 91 % 0 mm
03:52 2.4 °C 1.1 °C 1000.6 hPa SW 16.4 km/h 31.5 km/h 91 % 0 mm
03:57 2.4 °C 0.8 °C 1000.6 hPa WSW 15.1 km/h 24.1 km/h 89 % 0 mm
04:02 2.4 °C 0.7 °C 1000.6 hPa West 15.4 km/h 35.4 km/h 88 % 0 mm
04:07 2.4 °C 0.3 °C 1000.9 hPa NW 9.2 km/h 24.1 km/h 86 % 0 mm
04:12 2.5 °C 0.1 °C 1000.9 hPa NW 18.8 km/h 25.9 km/h 84 % 0 mm
04:17 2.5 °C -0.1 °C 1000.9 hPa WNW 16.6 km/h 18.5 km/h 83 % 0 mm
04:22 2.6 °C -0.2 °C 1000.9 hPa West 16.6 km/h 29.6 km/h 82 % 0 mm
04:27 2.6 °C -0.4 °C 1001.2 hPa WSW 14.8 km/h 27.8 km/h 81 % 0 mm
04:32 2.6 °C -0.4 °C 1001.2 hPa West 17.4 km/h 35.2 km/h 81 % 0 mm
04:37 2.5 °C -0.8 °C 1001.2 hPa NW 21.2 km/h 29.6 km/h 79 % 0 mm
04:42 2.5 °C -0.8 °C 1001.2 hPa WNW 16.4 km/h 30.6 km/h 79 % 0 mm
04:48 2.5 °C -1.1 °C 1001.2 hPa NW 12.6 km/h 27.8 km/h 77 % 0 mm
04:53 2.5 °C -1.1 °C 1001.2 hPa WSW 23.3 km/h 35.2 km/h 77 % 0 mm
04:58 2.5 °C -1.1 °C 1001.6 hPa West 12.6 km/h 27.8 km/h 77 % 0 mm
05:03 2.4 °C -1.2 °C 1001.2 hPa WSW 19.3 km/h 38.6 km/h 77 % 0 mm
05:08 2.4 °C -1.3 °C 1001.2 hPa SW 15.4 km/h 24.1 km/h 76 % 0 mm
05:13 2.3 °C -1.7 °C 1001.2 hPa West 15.9 km/h 38.9 km/h 75 % 0 mm
05:18 2.3 °C -1.9 °C 1001.6 hPa SSW 15 km/h 31.5 km/h 74 % 0 mm
05:23 2.2 °C -1.8 °C 1001.2 hPa West 21.6 km/h 42.6 km/h 75 % 0 mm
05:28 2.2 °C -2 °C 1001.2 hPa West 20.9 km/h 57.9 km/h 74 % 0 mm
05:33 2.1 °C -2.2 °C 1001.6 hPa West 24.1 km/h 53.1 km/h 73 % 0 mm
05:38 2.1 °C -2.3 °C 1001.2 hPa West 19.3 km/h 37 km/h 73 % 0 mm
05:43 2 °C -2.7 °C 1001.2 hPa West 20.9 km/h 46.7 km/h 71 % 0 mm
05:48 2 °C -2.7 °C 1001.2 hPa West 20.9 km/h 45.1 km/h 71 % 0 mm
05:53 1.9 °C -2.8 °C 1001.2 hPa WNW 24.1 km/h 48.3 km/h 71 % 0 mm
05:58 1.9 °C -2.6 °C 1001.6 hPa WSW 8.9 km/h 29.6 km/h 72 % 0 mm
06:03 1.9 °C -2.2 °C 1001.2 hPa WNW 17.9 km/h 30.6 km/h 74 % 0 mm
06:08 1.9 °C -2.2 °C 1001.6 hPa West 16.1 km/h 43.5 km/h 74 % 0 mm
06:13 1.9 °C -2.2 °C 1001.6 hPa West 19.3 km/h 33.8 km/h 74 % 0 mm
06:18 1.9 °C -2.2 °C 1001.2 hPa WNW 13.4 km/h 27.8 km/h 74 % 0 mm
06:23 1.9 °C -2.2 °C 1001.6 hPa WNW 18 km/h 42.6 km/h 74 % 0 mm
06:28 1.9 °C -2.2 °C 1001.6 hPa West 22.5 km/h 41.8 km/h 74 % 0 mm
06:33 1.6 °C -2.7 °C 1001.9 hPa West 13.5 km/h 32.2 km/h 73 % 0 mm
06:38 1.6 °C -2.8 °C 1002.3 hPa West 16.1 km/h 27.4 km/h 73 % 0 mm
06:43 1.6 °C -2.8 °C 1002.3 hPa WNW 16.1 km/h 38.6 km/h 73 % 0 mm
06:48 1.5 °C -2.8 °C 1002.3 hPa WNW 16.1 km/h 32.2 km/h 73 % 0 mm
06:53 1.4 °C -3.1 °C 1002.3 hPa NW 19.3 km/h 37 km/h 72 % 0 mm
06:58 1.4 °C -2.9 °C 1002.6 hPa WSW 16.1 km/h 18.5 km/h 73 % 0 mm
07:03 1.4 °C -2.9 °C 1002.6 hPa West 16.1 km/h 37 km/h 73 % 0 mm
07:08 1.4 °C -3.1 °C 1002.6 hPa SW 14.6 km/h 33.3 km/h 72 % 0 mm
07:13 1.5 °C -2.8 °C 1002.6 hPa West 12.9 km/h 27.4 km/h 73 % 0 mm
07:18 1.5 °C -3 °C 1002.9 hPa WNW 14.5 km/h 33.8 km/h 72 % 0 mm
07:23 1.6 °C -2.9 °C 1002.9 hPa WNW 14.5 km/h 37 km/h 72 % 0 mm
07:28 1.6 °C -2.9 °C 1002.9 hPa NW 19.3 km/h 37 km/h 72 % 0 mm
07:33 1.6 °C -2.9 °C 1002.9 hPa WNW 20.9 km/h 56.3 km/h 72 % 0 mm
07:38 1.7 °C -3.1 °C 1002.9 hPa WNW 16.1 km/h 41.8 km/h 71 % 0 mm
07:43 1.7 °C -2.8 °C 1002.9 hPa WNW 22.5 km/h 40.2 km/h 72 % 0 mm
07:48 1.7 °C -3.1 °C 1003.3 hPa West 14.5 km/h 33.8 km/h 71 % 0 mm
07:53 1.7 °C -3.1 °C 1003.3 hPa West 16.1 km/h 32.2 km/h 71 % 0 mm
07:58 1.7 °C -3.1 °C 1003.3 hPa WSW 19.6 km/h 29.6 km/h 71 % 0 mm
08:03 1.7 °C -3 °C 1002.9 hPa WNW 18 km/h 25.9 km/h 71 % 0 mm
08:08 1.8 °C -2.9 °C 1002.9 hPa WNW 20.9 km/h 38.6 km/h 71 % 0 mm
08:13 1.9 °C -3 °C 1003.3 hPa West 20.9 km/h 45.1 km/h 70 % 0 mm
08:18 2.1 °C -2.8 °C 1003.3 hPa WNW 18.3 km/h 42.6 km/h 70 % 0 mm
08:23 2.1 °C -2.8 °C 1003.3 hPa WSW 15 km/h 42.6 km/h 70 % 0 mm
08:28 2.1 °C -2.8 °C 1003.6 hPa WNW 20.9 km/h 35.4 km/h 70 % 0 mm
08:33 2 °C -2.9 °C 1003.6 hPa West 19.3 km/h 38.6 km/h 70 % 0 mm
08:38 1.9 °C -2.9 °C 1003.6 hPa WNW 13.7 km/h 24.1 km/h 70 % 0 mm
08:43 1.9 °C -2.9 °C 1003.6 hPa WNW 15.6 km/h 25.9 km/h 70 % 0 mm
08:48 2 °C -2.5 °C 1003.6 hPa West 16.1 km/h 32.2 km/h 72 % 0 mm
08:53 2.1 °C -2.6 °C 1003.9 hPa WNW 16.1 km/h 33.8 km/h 71 % 0 mm
08:58 2.2 °C -2.6 °C 1003.9 hPa West 14.5 km/h 31.5 km/h 71 % 0 mm
09:03 2.2 °C -2.5 °C 1004.3 hPa WNW 12.9 km/h 27.8 km/h 71 % 0 mm
09:08 2.3 °C -2.4 °C 1004.3 hPa West 23 km/h 31.5 km/h 71 % 0 mm
09:13 2.3 °C -2.6 °C 1004.3 hPa WNW 16.3 km/h 31.5 km/h 70 % 0 mm
09:18 2.5 °C -2.4 °C 1004.3 hPa West 15.3 km/h 24.1 km/h 70 % 0 mm
09:23 2.6 °C -2.6 °C 1004.3 hPa WNW 15.3 km/h 37 km/h 69 % 0 mm
09:29 2.6 °C -2.5 °C 1004.6 hPa NW 10.3 km/h 31.5 km/h 69 % 0 mm
09:34 2.7 °C -2.6 °C 1004.3 hPa West 12.9 km/h 16.7 km/h 68 % 0 mm
09:39 2.7 °C -3.3 °C 1004.6 hPa West 17.9 km/h 29.6 km/h 65 % 0 mm
09:44 2.7 °C -3 °C 1004.6 hPa West 17.5 km/h 35.2 km/h 66 % 0 mm
09:49 2.8 °C -3.1 °C 1005 hPa NNW 16.9 km/h 35.4 km/h 65 % 0 mm
09:54 2.9 °C -3 °C 1005 hPa NW 20.1 km/h 40.7 km/h 65 % 0 mm
09:59 3.1 °C -2.9 °C 1005 hPa NNW 12.7 km/h 33.3 km/h 65 % 0 mm
10:04 3.3 °C -2.9 °C 1005 hPa WNW 14.5 km/h 27.8 km/h 64 % 0 mm
10:09 3.4 °C -3.7 °C 1005 hPa WNW 22 km/h 35.2 km/h 60 % 0 mm
10:14 3.4 °C -3.6 °C 1005.3 hPa NW 13.8 km/h 20.4 km/h 60 % 0 mm
10:19 3.6 °C -3.5 °C 1005.3 hPa NW 15 km/h 33.3 km/h 60 % 0 mm
10:24 3.7 °C -3.6 °C 1005.3 hPa NW 14.8 km/h 31.5 km/h 59 % 0 mm
10:29 3.6 °C -3.9 °C 1005.3 hPa NNW 12.9 km/h 29.6 km/h 58 % 0 mm
10:34 3.7 °C -3.4 °C 1005.3 hPa NW 23 km/h 27.8 km/h 60 % 0 mm
10:39 3.4 °C -4.3 °C 1005.3 hPa NW 21.4 km/h 37 km/h 57 % 0 mm
10:44 3.2 °C -4.3 °C 1005.3 hPa NW 18.3 km/h 35.2 km/h 58 % 0 mm
10:49 3.2 °C -3.8 °C 1005.6 hPa NW 14.2 km/h 27.8 km/h 60 % 0 mm
10:54 3.2 °C -4.1 °C 1005.6 hPa NW 15.6 km/h 29.6 km/h 59 % 0 mm
10:59 3.1 °C -3.9 °C 1005.6 hPa NW 16.3 km/h 38.9 km/h 60 % 0 mm
11:04 3.1 °C -3.7 °C 1005.6 hPa NNW 15.3 km/h 25.9 km/h 61 % 0 mm
11:09 3 °C -4.2 °C 1005.6 hPa NW 20 km/h 31.5 km/h 59 % 0 mm
11:14 2.9 °C -4.1 °C 1005.6 hPa NNE 17.1 km/h 33.3 km/h 60 % 0 mm
11:19 2.8 °C -3.9 °C 1005.6 hPa NW 17.7 km/h 25.9 km/h 61 % 0 mm
11:25 2.9 °C -4.1 °C 1005.6 hPa NW 19.3 km/h 31.5 km/h 60 % 0 mm
11:29 2.9 °C -4.1 °C 1005.6 hPa NW 12.1 km/h 31.5 km/h 60 % 0 mm
11:35 2.9 °C -3.8 °C 1005.6 hPa NW 17.9 km/h 27.8 km/h 61 % 0 mm
11:40 2.9 °C -4.3 °C 1006 hPa NW 17.2 km/h 25.9 km/h 59 % 0 mm
11:45 2.9 °C -4.3 °C 1006 hPa WNW 20.8 km/h 38.6 km/h 59 % 0 mm
11:50 2.9 °C -4.1 °C 1005.6 hPa WNW 11.9 km/h 24.1 km/h 60 % 0 mm
11:55 3.1 °C -3.7 °C 1005.6 hPa NW 12.7 km/h 25.7 km/h 61 % 0 mm
12:00 3.2 °C -4.1 °C 1005.6 hPa NNW 15.6 km/h 22.5 km/h 59 % 0 mm
12:05 3.2 °C -4.3 °C 1005.6 hPa North 18.7 km/h 31.5 km/h 58 % 0 mm
12:10 3.2 °C -4.1 °C 1005.6 hPa NW 15.1 km/h 33.3 km/h 59 % 0 mm
12:15 3.3 °C -4.2 °C 1005.6 hPa WNW 25.1 km/h 32.2 km/h 58 % 0 mm
12:20 3.3 °C -4.2 °C 1005.6 hPa WNW 19.2 km/h 35.2 km/h 58 % 0 mm
12:25 3.4 °C -4.1 °C 1005.6 hPa West 15.3 km/h 27.8 km/h 58 % 0 mm
12:30 3.5 °C -4.4 °C 1005.6 hPa NNW 23 km/h 42.6 km/h 56 % 0 mm
12:35 3.5 °C -4 °C 1005.6 hPa WNW 17.7 km/h 33.3 km/h 58 % 0 mm
12:40 3.4 °C -4.1 °C 1005.6 hPa West 17.7 km/h 40.7 km/h 58 % 0 mm
12:45 3.3 °C -4.2 °C 1006 hPa WNW 22 km/h 37 km/h 58 % 0 mm
12:50 3.2 °C -4.3 °C 1005.6 hPa NNW 14.3 km/h 27.8 km/h 58 % 0 mm
12:55 3.2 °C -3.8 °C 1005.6 hPa NW 10.1 km/h 24.1 km/h 60 % 0 mm
13:00 3.2 °C -4.3 °C 1006 hPa WNW 19.2 km/h 29.6 km/h 58 % 0 mm
13:05 3.3 °C -4.4 °C 1006 hPa SW 18.2 km/h 31.5 km/h 57 % 0 mm
13:10 3.3 °C -4.2 °C 1006 hPa NW 24.5 km/h 40.7 km/h 58 % 0 mm
13:15 3.5 °C -4 °C 1006 hPa NW 19.8 km/h 31.5 km/h 58 % 0 mm
13:21 3.6 °C -3.9 °C 1006 hPa WNW 16.7 km/h 31.5 km/h 58 % 0 mm
13:25 3.6 °C -4.2 °C 1006 hPa NW 21.7 km/h 33.3 km/h 57 % 0 mm
13:31 3.5 °C -4.2 °C 1006.3 hPa NNW 24.8 km/h 40.7 km/h 57 % 0 mm
13:36 3.4 °C -4.5 °C 1006.3 hPa WNW 15.8 km/h 29.6 km/h 56 % 0 mm
13:41 3.4 °C -3.8 °C 1006.3 hPa West 16.9 km/h 27.8 km/h 59 % 0 mm
13:46 3.5 °C -4 °C 1006.3 hPa West 17.4 km/h 42.6 km/h 58 % 0 mm
13:51 3.6 °C -3.9 °C 1006.7 hPa West 13.2 km/h 27.4 km/h 58 % 0 mm
13:56 3.6 °C -3.9 °C 1006.7 hPa WNW 21.2 km/h 32.2 km/h 58 % 0 mm
14:01 3.6 °C -3.9 °C 1006.7 hPa North 14.6 km/h 25.9 km/h 58 % 0 mm
14:06 3.7 °C -3.8 °C 1006.7 hPa NNW 16.1 km/h 31.5 km/h 58 % 0 mm
14:11 3.7 °C -3.8 °C 1007 hPa NW 17.9 km/h 22.2 km/h 58 % 0 mm
14:16 3.7 °C -3.8 °C 1007 hPa North 10.6 km/h 25.9 km/h 58 % 0 mm
14:21 3.7 °C -3.8 °C 1007 hPa West 18.2 km/h 31.5 km/h 58 % 0 mm
14:26 3.7 °C -4 °C 1007 hPa NW 16.9 km/h 30.6 km/h 57 % 0 mm
14:31 3.8 °C -3.7 °C 1007 hPa NW 18.7 km/h 40.7 km/h 58 % 0 mm
14:36 3.8 °C -3.7 °C 1006.7 hPa North 18.8 km/h 29.6 km/h 58 % 0 mm
14:41 3.8 °C -3.7 °C 1007 hPa West 18.8 km/h 25.9 km/h 58 % 0 mm
14:46 3.7 °C -3.6 °C 1007 hPa WNW 12.9 km/h 42.6 km/h 59 % 0 mm
14:51 3.6 °C -3.7 °C 1007 hPa North 19.2 km/h 31.5 km/h 59 % 0 mm
14:56 3.6 °C -3.7 °C 1007 hPa NNW 14.2 km/h 31.5 km/h 59 % 0 mm
15:01 3.4 °C -3.8 °C 1007 hPa North 13.4 km/h 42.6 km/h 59 % 0 mm
15:06 3.4 °C -3.8 °C 1007.3 hPa NNW 15.9 km/h 27.8 km/h 59 % 0 mm
15:11 3.4 °C -3.9 °C 1007.3 hPa North 17.5 km/h 32.2 km/h 59 % 0 mm
15:16 3.3 °C -4.2 °C 1007.3 hPa NW 13.5 km/h 31.5 km/h 58 % 0 mm
15:21 3.3 °C -4.2 °C 1007.3 hPa NNW 17.9 km/h 38.6 km/h 58 % 0 mm
15:26 3.2 °C -4.1 °C 1007.3 hPa NW 19.3 km/h 33.3 km/h 59 % 0 mm
15:31 3.2 °C -4.1 °C 1007.3 hPa NW 16.4 km/h 31.5 km/h 59 % 0 mm
15:37 3.2 °C -3.8 °C 1007.3 hPa West 12.6 km/h 35.4 km/h 60 % 0 mm
15:42 3.2 °C -4.1 °C 1007.3 hPa NNW 15 km/h 33.3 km/h 59 % 0 mm
15:47 3.2 °C -4.1 °C 1007.3 hPa NNW 16.3 km/h 25.9 km/h 59 % 0 mm
15:52 3.1 °C -4.1 °C 1007.3 hPa NW 24.9 km/h 37 km/h 59 % 0 mm
15:57 3.1 °C -4.4 °C 1007.3 hPa NNE 17.4 km/h 35.2 km/h 58 % 0 mm
16:02 3.1 °C -4.4 °C 1007.3 hPa North 20.3 km/h 29.6 km/h 58 % 0 mm
16:07 3 °C -4.2 °C 1007.7 hPa WNW 20.4 km/h 25.9 km/h 59 % 0 mm
16:12 3 °C -4 °C 1007.7 hPa WSW 16.3 km/h 25.9 km/h 60 % 0 mm
16:17 2.9 °C -4.1 °C 1007.7 hPa NW 11.4 km/h 20.4 km/h 60 % 0 mm
16:18 2.9 °C -4.1 °C 1008 hPa West 14.8 km/h 22.2 km/h 60 % 0 mm
16:23 2.9 °C -4.1 °C 1008 hPa NW 15.8 km/h 37 km/h 60 % 0 mm
16:28 2.9 °C -4.1 °C 1008.4 hPa North 12.6 km/h 24.1 km/h 60 % 0 mm
16:33 2.8 °C -4.2 °C 1008.4 hPa West 15.6 km/h 25.9 km/h 60 % 0 mm
16:38 2.8 °C -4.4 °C 1008.4 hPa NNW 12.6 km/h 29.6 km/h 59 % 0 mm
16:43 2.7 °C -4.3 °C 1008.4 hPa NNW 13 km/h 25.9 km/h 60 % 0 mm
16:48 2.7 °C -4.3 °C 1008.4 hPa North 15.8 km/h 37 km/h 60 % 0 mm
16:53 2.7 °C -3.9 °C 1008.4 hPa WNW 10.5 km/h 25.9 km/h 62 % 0 mm
16:58 2.6 °C -3.7 °C 1008.7 hPa NW 9.5 km/h 14.8 km/h 63 % 0 mm
16:59 2.6 °C -3.7 °C 1008.4 hPa NNW 10.5 km/h 16.7 km/h 63 % 0 mm
17:04 2.6 °C -4.2 °C 1008.7 hPa NNW 19.5 km/h 25.9 km/h 61 % 0 mm
17:09 2.5 °C -4.1 °C 1008.7 hPa WNW 12.2 km/h 27.8 km/h 62 % 0 mm
17:14 2.4 °C -4.3 °C 1008.7 hPa NNW 14.2 km/h 27.8 km/h 61 % 0 mm
17:19 2.5 °C -4.3 °C 1008.7 hPa NNW 21.1 km/h 31.5 km/h 61 % 0 mm
17:24 2.5 °C -4.9 °C 1009 hPa West 16.1 km/h 35.2 km/h 58 % 0 mm
17:29 2.4 °C -4.3 °C 1009 hPa NNW 14.5 km/h 20.9 km/h 61 % 0 mm
17:34 2.4 °C -4.6 °C 1009 hPa NNW 18.3 km/h 35.4 km/h 60 % 0 mm
17:39 2.3 °C -4.9 °C 1009.4 hPa West 19.6 km/h 37 km/h 59 % 0 mm
17:44 2.3 °C -4.9 °C 1009.7 hPa NNW 15.8 km/h 29.6 km/h 59 % 0 mm
17:49 2.3 °C -4.5 °C 1009.7 hPa NW 15.8 km/h 33.3 km/h 61 % 0 mm
17:54 2.2 °C -4.8 °C 1009.7 hPa WNW 14.6 km/h 25.7 km/h 60 % 0 mm
17:59 2.2 °C -4.6 °C 1010 hPa West 16.1 km/h 29.6 km/h 61 % 0 mm
18:04 2.1 °C -4.6 °C 1010 hPa WNW 12.4 km/h 29.6 km/h 61 % 0 mm
18:09 2.1 °C -4.9 °C 1010 hPa NW 14.3 km/h 22.2 km/h 60 % 0 mm
18:14 2 °C -4.7 °C 1010 hPa NNW 16.9 km/h 35.4 km/h 61 % 0 mm
18:19 1.9 °C -4.8 °C 1010.4 hPa WNW 9.8 km/h 31.5 km/h 61 % 0 mm
18:24 1.9 °C -4.8 °C 1010.4 hPa NNW 17.1 km/h 31.5 km/h 61 % 0 mm
18:29 1.8 °C -5.1 °C 1010.4 hPa WNW 8.7 km/h 29.6 km/h 60 % 0 mm
18:35 1.7 °C -5 °C 1010.7 hPa NW 14.3 km/h 24.1 km/h 61 % 0 mm
18:40 1.7 °C -5.1 °C 1010.7 hPa NNW 13 km/h 24.1 km/h 61 % 0 mm
18:45 1.6 °C -4.7 °C 1011.1 hPa NW 12.9 km/h 27.8 km/h 63 % 0 mm
18:50 1.6 °C -5.4 °C 1011.4 hPa WNW 15 km/h 22.5 km/h 60 % 0 mm
18:55 1.5 °C -5.4 °C 1011.4 hPa NW 17.2 km/h 33.3 km/h 60 % 0 mm
19:00 1.4 °C -5.1 °C 1011.4 hPa NNW 9.8 km/h 19.3 km/h 62 % 0 mm
19:05 1.4 °C -5.1 °C 1011.1 hPa NW 15.8 km/h 31.5 km/h 62 % 0 mm
19:10 1.3 °C -5.2 °C 1011.1 hPa NW 15 km/h 27.8 km/h 62 % 0 mm
19:15 1.2 °C -5.3 °C 1011.1 hPa NNW 15.8 km/h 22.2 km/h 62 % 0 mm
19:20 1.2 °C -5.1 °C 1011.1 hPa North 10.8 km/h 25.9 km/h 63 % 0 mm
19:25 1.1 °C -5.2 °C 1011.4 hPa NW 11.3 km/h 24.1 km/h 63 % 0 mm
19:30 1.1 °C -4.7 °C 1011.4 hPa WNW 11.9 km/h 16.7 km/h 65 % 0 mm
19:35 1.1 °C -5 °C 1011.7 hPa NNW 10 km/h 24.1 km/h 64 % 0 mm
19:40 1 °C -5.3 °C 1011.4 hPa NNW 12.2 km/h 17.7 km/h 63 % 0 mm
19:45 0.9 °C -5.3 °C 1011.4 hPa NNW 9.8 km/h 16.7 km/h 63 % 0 mm
19:50 0.9 °C -5.2 °C 1011.7 hPa North 9.8 km/h 18.5 km/h 64 % 0 mm
19:55 0.8 °C -5.2 °C 1011.7 hPa NW 11.1 km/h 20.9 km/h 64 % 0 mm
20:01 0.8 °C -5.3 °C 1011.4 hPa NW 11.3 km/h 16.7 km/h 64 % 0 mm
20:06 0.7 °C -5.1 °C 1011.4 hPa NW 10.1 km/h 16.7 km/h 65 % 0 mm
20:11 0.7 °C -5.4 °C 1011.7 hPa NNW 9.5 km/h 19.3 km/h 64 % 0 mm
20:16 0.6 °C -5.4 °C 1011.7 hPa WNW 11.1 km/h 19.3 km/h 64 % 0 mm
20:21 0.6 °C -5.4 °C 1011.7 hPa NNW 11.9 km/h 22.5 km/h 64 % 0 mm
20:26 0.6 °C -5.5 °C 1011.7 hPa NNW 9.8 km/h 29.6 km/h 64 % 0 mm
20:31 0.5 °C -5.3 °C 1011.7 hPa NNW 14.2 km/h 31.5 km/h 65 % 0 mm
20:36 0.5 °C -5.1 °C 1011.7 hPa WNW 8.9 km/h 18.5 km/h 66 % 0 mm
20:41 0.4 °C -5.2 °C 1012.1 hPa WNW 8.4 km/h 11.1 km/h 66 % 0 mm
20:46 0.4 °C -5.2 °C 1012.1 hPa NNW 10.6 km/h 16.7 km/h 66 % 0 mm
20:51 0.4 °C -5.2 °C 1012.4 hPa NW 4.5 km/h 11.1 km/h 66 % 0 mm
20:56 0.3 °C -4.9 °C 1012.4 hPa NW 6 km/h 6.4 km/h 68 % 0 mm
21:01 0.3 °C -4.9 °C 1012.4 hPa NNW 3.7 km/h 5.6 km/h 68 % 0 mm
21:06 0.3 °C -4.9 °C 1012.4 hPa NNW 4.8 km/h 9.3 km/h 68 % 0 mm
21:11 0.2 °C -5.2 °C 1012.8 hPa North 5.6 km/h 13 km/h 67 % 0 mm
21:16 0.1 °C -5.3 °C 1012.4 hPa North 9 km/h 18.5 km/h 67 % 0 mm
21:21 0 °C -5.2 °C 1012.8 hPa North 6.4 km/h 18.5 km/h 68 % 0 mm
21:26 -0.1 °C -5.3 °C 1012.8 hPa NNW 8.4 km/h 18.5 km/h 68 % 0 mm
21:31 -0.2 °C -5.4 °C 1012.8 hPa NW 9.3 km/h 14.8 km/h 68 % 0 mm
21:36 -0.2 °C -5.4 °C 1013.1 hPa NNW 10 km/h 18.5 km/h 68 % 0 mm
21:42 -0.3 °C -5.7 °C 1013.1 hPa NNW 8 km/h 13 km/h 67 % 0 mm
21:47 -0.3 °C -5.7 °C 1013.1 hPa North 4 km/h 11.1 km/h 67 % 0 mm
21:52 -0.4 °C -5.6 °C 1013.1 hPa WNW 10.3 km/h 16.7 km/h 68 % 0 mm
21:57 -0.4 °C -5.6 °C 1013.1 hPa NNE 6.3 km/h 13 km/h 68 % 0 mm
22:02 -0.6 °C -5.7 °C 1013.1 hPa North 8.9 km/h 13 km/h 68 % 0 mm
22:07 -0.6 °C -5.8 °C 1013.1 hPa NW 9.3 km/h 13 km/h 68 % 0 mm
22:12 -0.6 °C -5.8 °C 1013.1 hPa NNW 5.1 km/h 13 km/h 68 % 0 mm
22:17 -0.7 °C -5.8 °C 1013.1 hPa NNW 5.8 km/h 7.4 km/h 68 % 0 mm
22:22 -0.8 °C -5.8 °C 1013.1 hPa NNW 4.2 km/h 11.1 km/h 69 % 0 mm
22:27 -0.8 °C -5.8 °C 1013.1 hPa NNW 7.2 km/h 11.1 km/h 69 % 0 mm
22:32 -0.8 °C -5.8 °C 1013.4 hPa WNW 2.6 km/h 7.4 km/h 69 % 0 mm
22:37 -0.9 °C -5.9 °C 1013.4 hPa NNE 4.7 km/h 9.7 km/h 69 % 0 mm
22:42 -0.9 °C -5.9 °C 1013.4 hPa North 5.6 km/h 9.3 km/h 69 % 0 mm
22:47 -0.9 °C -5.9 °C 1013.4 hPa NW 7.4 km/h 9.7 km/h 69 % 0 mm
22:52 -1 °C -5.8 °C 1013.4 hPa North 7.1 km/h 16.7 km/h 70 % 0 mm
22:57 -1 °C -6 °C 1013.4 hPa NNW 5 km/h 11.3 km/h 69 % 0 mm
23:02 -1 °C -5.8 °C 1013.4 hPa NNW 7.1 km/h 13 km/h 70 % 0 mm
23:08 -1.1 °C -5.8 °C 1013.4 hPa WNW 2.1 km/h 8 km/h 70 % 0 mm
23:13 -1.1 °C -5.8 °C 1013.4 hPa NNW 3.9 km/h 7.4 km/h 70 % 0 mm
23:18 -1.1 °C -5.8 °C 1013.4 hPa NNW 6.6 km/h 11.1 km/h 70 % 0 mm
23:23 -1.1 °C -5.9 °C 1013.4 hPa North 6.4 km/h 9.3 km/h 70 % 0 mm
23:28 -1.2 °C -5.8 °C 1013.4 hPa NW 1.3 km/h 4.8 km/h 71 % 0 mm
23:33 -1.2 °C -5.8 °C 1013.8 hPa NNW 6.1 km/h 11.1 km/h 71 % 0 mm
23:38 -1.2 °C -5.8 °C 1013.4 hPa NNW 7.2 km/h 16.1 km/h 71 % 0 mm
23:43 -1.2 °C -5.8 °C 1013.8 hPa NNW 1.8 km/h 5.6 km/h 71 % 0 mm
23:48 -1.3 °C -5.9 °C 1013.8 hPa NW 6 km/h 11.1 km/h 71 % 0 mm
23:53 -1.3 °C -5.9 °C 1013.8 hPa NNW 6.9 km/h 11.3 km/h 71 % 0 mm
23:58 -1.3 °C -5.9 °C 1013.4 hPa NNW 7.7 km/h 9.7 km/h 71 % 0 mm
Crab Meadow Weather
Compliments of Weather Underground - 3 mb

Script developed by  Jim McMurry - jmcmurry@mwt.net Adapted for the template by  Wim van der Kuil - Leuven-Template.eu

Astronomy: It takes Saturn exactly 29.46 years to travel once around the Sun.